createdAt,value
2017-11-16T00:00:03.933Z,21.29
2017-11-16T00:00:35.564Z,21.29
2017-11-16T00:01:07.188Z,21.29
2017-11-16T00:01:38.841Z,21.31
2017-11-16T00:02:10.480Z,21.33
2017-11-16T00:02:42.358Z,21.34
2017-11-16T00:03:13.979Z,21.34
2017-11-16T00:03:45.716Z,21.35
2017-11-16T00:04:17.666Z,21.36
2017-11-16T00:04:49.332Z,21.33
2017-11-16T00:05:20.959Z,21.34
2017-11-16T00:05:52.899Z,21.34
2017-11-16T00:06:24.537Z,21.36
2017-11-16T00:06:56.488Z,21.39
2017-11-16T00:07:28.139Z,21.37
2017-11-16T00:07:59.788Z,21.36
2017-11-16T00:08:31.723Z,21.36
2017-11-16T00:09:03.671Z,21.37
2017-11-16T00:09:35.311Z,21.37
2017-11-16T00:10:06.956Z,21.41
2017-11-16T00:10:38.597Z,21.39
2017-11-16T00:11:10.238Z,21.36
2017-11-16T00:11:41.880Z,21.38
2017-11-16T00:12:13.522Z,21.35
2017-11-16T00:12:45.161Z,21.36
2017-11-16T00:13:16.806Z,21.36
2017-11-16T00:13:48.432Z,21.34
2017-11-16T00:14:20.089Z,21.35
2017-11-16T00:14:51.755Z,21.38
2017-11-16T00:15:23.379Z,21.36
2017-11-16T00:15:55.017Z,21.35
2017-11-16T00:16:26.657Z,21.36
2017-11-16T00:16:58.336Z,21.34
2017-11-16T00:17:29.961Z,21.35
2017-11-16T00:18:01.829Z,21.35
2017-11-16T00:18:33.452Z,21.36
2017-11-16T00:19:05.128Z,21.35
2017-11-16T00:19:37.003Z,21.34
2017-11-16T00:20:08.766Z,21.32
2017-11-16T00:20:40.410Z,21.32
2017-11-16T00:21:12.048Z,21.29
2017-11-16T00:21:43.999Z,21.31
2017-11-16T00:22:15.862Z,21.30
2017-11-16T00:22:47.496Z,21.29
2017-11-16T00:23:19.233Z,21.32
2017-11-16T00:23:50.877Z,21.30
2017-11-16T00:24:22.543Z,21.31
2017-11-16T00:24:54.167Z,21.29
2017-11-16T00:25:26.102Z,21.27
2017-11-16T00:25:57.747Z,21.27
2017-11-16T00:26:29.390Z,21.27
2017-11-16T00:27:01.031Z,21.28
2017-11-16T00:27:32.699Z,21.29
2017-11-16T00:28:04.323Z,21.29
2017-11-16T00:28:35.958Z,21.28
2017-11-16T00:29:07.603Z,21.31
2017-11-16T00:29:39.247Z,21.30
2017-11-16T00:30:10.897Z,21.27
2017-11-16T00:30:42.766Z,21.30
2017-11-16T00:31:14.395Z,21.29
2017-11-16T00:31:46.019Z,21.29
2017-11-16T00:32:17.759Z,21.31
2017-11-16T00:32:49.423Z,21.30
2017-11-16T00:33:21.348Z,21.26
2017-11-16T00:33:53.555Z,21.27
2017-11-16T00:34:25.192Z,21.28
2017-11-16T00:34:56.889Z,21.29
2017-11-16T00:35:28.533Z,21.30
2017-11-16T00:36:00.446Z,21.28
2017-11-16T00:36:32.111Z,21.28
2017-11-16T00:37:03.764Z,21.26
2017-11-16T00:37:35.406Z,21.26
2017-11-16T00:38:07.047Z,21.26
2017-11-16T00:38:38.884Z,21.26
2017-11-16T00:39:10.547Z,21.25
2017-11-16T00:39:42.280Z,21.24
2017-11-16T00:40:13.923Z,21.24
2017-11-16T00:40:45.565Z,21.23
2017-11-16T00:41:17.206Z,21.22
2017-11-16T00:41:48.849Z,21.20
2017-11-16T00:42:20.502Z,21.23
2017-11-16T00:42:52.375Z,21.24
2017-11-16T00:43:24.004Z,21.24
2017-11-16T00:43:55.675Z,21.25
2017-11-16T00:44:27.303Z,21.25
2017-11-16T00:44:58.927Z,21.26
2017-11-16T00:45:30.555Z,21.22
2017-11-16T00:46:02.291Z,21.21
2017-11-16T00:46:33.932Z,21.24
2017-11-16T00:47:05.570Z,21.22
2017-11-16T00:47:37.255Z,21.22
2017-11-16T00:48:08.882Z,21.21
2017-11-16T00:48:40.503Z,21.20
2017-11-16T00:49:12.142Z,21.18
2017-11-16T00:49:43.784Z,21.18
2017-11-16T00:50:15.429Z,21.20
2017-11-16T00:50:47.067Z,21.21
2017-11-16T00:51:18.699Z,21.19
2017-11-16T00:51:50.351Z,21.18
2017-11-16T00:52:21.993Z,21.19
2017-11-16T00:52:53.644Z,21.19
2017-11-16T00:53:25.274Z,21.18
2017-11-16T00:53:56.940Z,21.20
2017-11-16T00:54:28.563Z,21.20
2017-11-16T00:55:00.202Z,21.21
2017-11-16T00:55:31.846Z,21.20
2017-11-16T00:56:03.512Z,21.24
2017-11-16T00:56:35.143Z,21.22
2017-11-16T00:57:07.009Z,21.20
2017-11-16T00:57:38.635Z,21.19
2017-11-16T00:58:10.362Z,21.20
2017-11-16T00:58:43.232Z,21.21
2017-11-16T00:59:14.859Z,21.23
2017-11-16T00:59:46.497Z,21.23
2017-11-16T01:00:18.159Z,21.23
2017-11-16T01:00:49.797Z,21.21
2017-11-16T01:01:21.463Z,21.21
2017-11-16T01:01:53.090Z,21.19
2017-11-16T01:02:24.726Z,21.21
2017-11-16T01:02:56.366Z,21.20
2017-11-16T01:03:28.013Z,21.20
2017-11-16T01:03:59.680Z,21.20
2017-11-16T01:04:31.304Z,21.21
2017-11-16T01:05:03.242Z,21.26
2017-11-16T01:05:34.884Z,21.32
2017-11-16T01:06:06.526Z,21.26
2017-11-16T01:06:38.169Z,21.20
2017-11-16T01:07:09.810Z,21.17
2017-11-16T01:07:41.451Z,21.16
2017-11-16T01:08:13.097Z,21.12
2017-11-16T01:08:44.736Z,21.09
2017-11-16T01:09:16.377Z,21.09
2017-11-16T01:09:48.021Z,21.09
2017-11-16T01:10:19.712Z,21.10
2017-11-16T01:10:51.343Z,21.11
2017-11-16T01:11:22.967Z,21.07
2017-11-16T01:11:54.596Z,21.09
2017-11-16T01:12:26.468Z,21.09
2017-11-16T01:12:58.095Z,21.11
2017-11-16T01:13:29.724Z,21.12
2017-11-16T01:14:01.464Z,21.10
2017-11-16T01:14:33.091Z,21.11
2017-11-16T01:15:04.746Z,21.11
2017-11-16T01:15:36.424Z,21.11
2017-11-16T01:16:08.048Z,21.09
2017-11-16T01:16:39.978Z,21.07
2017-11-16T01:17:11.621Z,21.07
2017-11-16T01:17:43.262Z,21.09
2017-11-16T01:18:14.904Z,21.06
2017-11-16T01:18:46.551Z,21.07
2017-11-16T01:19:18.186Z,21.05
2017-11-16T01:19:49.829Z,21.05
2017-11-16T01:20:21.472Z,21.05
2017-11-16T01:20:53.144Z,21.05
2017-11-16T01:21:24.771Z,21.06
2017-11-16T01:21:56.407Z,21.05
2017-11-16T01:22:28.347Z,21.05
2017-11-16T01:22:59.988Z,21.03
2017-11-16T01:23:31.630Z,21.04
2017-11-16T01:24:03.275Z,21.07
2017-11-16T01:24:34.915Z,21.07
2017-11-16T01:25:06.556Z,21.06
2017-11-16T01:25:38.195Z,21.07
2017-11-16T01:26:09.859Z,21.04
2017-11-16T01:26:41.494Z,21.04
2017-11-16T01:27:13.115Z,21.04
2017-11-16T01:27:44.765Z,21.03
2017-11-16T01:28:16.407Z,21.05
2017-11-16T01:28:48.048Z,21.06
2017-11-16T01:29:19.691Z,21.08
2017-11-16T01:29:51.339Z,21.10
2017-11-16T01:30:22.974Z,21.09
2017-11-16T01:30:54.617Z,21.09
2017-11-16T01:31:26.288Z,21.09
2017-11-16T01:31:57.911Z,21.07
2017-11-16T01:32:29.780Z,21.09
2017-11-16T01:33:01.408Z,21.07
2017-11-16T01:33:33.040Z,21.07
2017-11-16T01:34:04.776Z,21.07
2017-11-16T01:34:36.418Z,21.08
2017-11-16T01:35:08.060Z,21.09
2017-11-16T01:35:39.706Z,21.07
2017-11-16T01:36:11.651Z,21.07
2017-11-16T01:36:43.596Z,21.07
2017-11-16T01:37:15.239Z,21.08
2017-11-16T01:37:46.902Z,21.07
2017-11-16T01:38:18.762Z,21.09
2017-11-16T01:38:50.472Z,21.08
2017-11-16T01:39:22.119Z,21.08
2017-11-16T01:39:53.758Z,21.09
2017-11-16T01:40:25.400Z,21.10
2017-11-16T01:40:57.041Z,21.10
2017-11-16T01:41:28.683Z,21.07
2017-11-16T01:42:00.325Z,21.09
2017-11-16T01:42:31.965Z,21.09
2017-11-16T01:43:03.608Z,21.11
2017-11-16T01:43:35.277Z,21.08
2017-11-16T01:44:06.908Z,21.08
2017-11-16T01:44:38.844Z,21.06
2017-11-16T01:45:10.592Z,21.09
2017-11-16T01:45:42.434Z,21.13
2017-11-16T01:46:14.072Z,21.13
2017-11-16T01:46:45.716Z,21.13
2017-11-16T01:47:17.383Z,21.15
2017-11-16T01:47:49.010Z,21.17
2017-11-16T01:48:20.832Z,21.19
2017-11-16T01:48:52.504Z,21.21
2017-11-16T01:49:24.239Z,21.28
2017-11-16T01:49:55.880Z,21.28
2017-11-16T01:50:27.825Z,21.29
2017-11-16T01:50:59.467Z,21.30
2017-11-16T01:51:31.108Z,21.30
2017-11-16T01:52:02.747Z,21.31
2017-11-16T01:52:34.392Z,21.32
2017-11-16T01:53:06.027Z,21.31
2017-11-16T01:53:37.676Z,21.31
2017-11-16T01:54:09.343Z,21.32
2017-11-16T01:54:40.969Z,21.31
2017-11-16T01:55:12.607Z,21.31
2017-11-16T01:55:44.244Z,21.32
2017-11-16T01:56:15.885Z,21.34
2017-11-16T01:56:47.535Z,21.33
2017-11-16T01:57:19.175Z,21.31
2017-11-16T01:57:50.812Z,21.35
2017-11-16T01:58:22.453Z,21.33
2017-11-16T01:58:54.123Z,21.33
2017-11-16T01:59:25.747Z,21.30
2017-11-16T01:59:57.687Z,21.32
2017-11-16T02:00:29.328Z,21.33
2017-11-16T02:01:00.971Z,21.32
2017-11-16T02:01:32.640Z,21.33
2017-11-16T02:02:04.269Z,21.34
2017-11-16T02:02:35.904Z,21.32
2017-11-16T02:03:07.538Z,21.32
2017-11-16T02:03:39.203Z,21.37
2017-11-16T02:04:10.867Z,21.38
2017-11-16T02:04:42.500Z,21.36
2017-11-16T02:05:14.124Z,21.34
2017-11-16T02:05:45.751Z,21.36
2017-11-16T02:06:17.389Z,21.37
2017-11-16T02:06:49.031Z,21.36
2017-11-16T02:07:20.674Z,21.37
2017-11-16T02:07:52.551Z,21.36
2017-11-16T02:08:24.175Z,21.37
2017-11-16T02:08:55.906Z,21.39
2017-11-16T02:09:27.576Z,21.38
2017-11-16T02:09:59.199Z,21.38
2017-11-16T02:10:30.832Z,21.38
2017-11-16T02:11:02.498Z,21.38
2017-11-16T02:11:34.127Z,21.38
2017-11-16T02:12:06.065Z,21.37
2017-11-16T02:12:37.704Z,21.42
2017-11-16T02:13:09.349Z,21.41
2017-11-16T02:13:40.988Z,21.40
2017-11-16T02:14:12.633Z,21.41
2017-11-16T02:14:44.299Z,21.40
2017-11-16T02:15:15.925Z,21.39
2017-11-16T02:15:47.594Z,21.39
2017-11-16T02:16:19.219Z,21.39
2017-11-16T02:16:50.848Z,21.36
2017-11-16T02:17:22.484Z,21.36
2017-11-16T02:17:54.125Z,21.36
2017-11-16T02:18:25.766Z,21.35
2017-11-16T02:18:57.409Z,21.36
2017-11-16T02:19:29.091Z,21.35
2017-11-16T02:20:00.716Z,21.37
2017-11-16T02:20:32.347Z,21.38
2017-11-16T02:21:03.980Z,21.36
2017-11-16T02:21:35.618Z,21.37
2017-11-16T02:22:07.683Z,21.40
2017-11-16T02:22:39.508Z,21.39
2017-11-16T02:23:11.158Z,21.39
2017-11-16T02:23:42.804Z,21.38
2017-11-16T02:24:14.442Z,21.37
2017-11-16T02:24:46.116Z,21.37
2017-11-16T02:25:17.739Z,21.39
2017-11-16T02:25:49.573Z,21.40
2017-11-16T02:26:21.317Z,21.39
2017-11-16T02:26:52.948Z,21.35
2017-11-16T02:27:24.580Z,21.37
2017-11-16T02:27:56.243Z,21.38
2017-11-16T02:28:27.885Z,21.39
2017-11-16T02:28:59.527Z,21.38
2017-11-16T02:29:31.169Z,21.37
2017-11-16T02:30:02.840Z,21.36
2017-11-16T02:30:34.472Z,21.36
2017-11-16T02:31:06.102Z,21.36
2017-11-16T02:31:37.780Z,21.34
2017-11-16T02:32:09.408Z,21.36
2017-11-16T02:32:41.041Z,21.35
2017-11-16T02:33:12.670Z,21.34
2017-11-16T02:33:44.306Z,21.34
2017-11-16T02:34:16.173Z,21.34
2017-11-16T02:34:47.799Z,21.35
2017-11-16T02:35:19.539Z,21.33
2017-11-16T02:35:51.179Z,21.32
2017-11-16T02:36:22.823Z,21.31
2017-11-16T02:36:54.491Z,21.31
2017-11-16T02:37:26.117Z,21.33
2017-11-16T02:37:57.861Z,21.31
2017-11-16T02:38:29.696Z,21.32
2017-11-16T02:39:01.337Z,21.31
2017-11-16T02:39:32.981Z,21.30
2017-11-16T02:40:04.621Z,21.28
2017-11-16T02:40:36.298Z,21.29
2017-11-16T02:41:07.927Z,21.29
2017-11-16T02:41:39.599Z,21.26
2017-11-16T02:42:11.229Z,21.29
2017-11-16T02:42:42.870Z,21.29
2017-11-16T02:43:14.499Z,21.29
2017-11-16T02:43:46.167Z,21.29
2017-11-16T02:44:17.796Z,21.29
2017-11-16T02:44:49.423Z,21.28
2017-11-16T02:45:21.048Z,21.25
2017-11-16T02:45:52.680Z,21.29
2017-11-16T02:46:24.323Z,21.28
2017-11-16T02:46:55.965Z,21.28
2017-11-16T02:47:27.607Z,21.29
2017-11-16T02:47:59.281Z,21.29
2017-11-16T02:48:30.903Z,21.29
2017-11-16T02:49:02.539Z,21.30
2017-11-16T02:49:34.163Z,21.34
2017-11-16T02:50:05.818Z,21.29
2017-11-16T02:50:37.767Z,21.28
2017-11-16T02:51:09.393Z,21.26
2017-11-16T02:51:41.051Z,21.27
2017-11-16T02:52:12.728Z,21.26
2017-11-16T02:52:44.642Z,21.27
2017-11-16T02:53:16.517Z,21.24
2017-11-16T02:53:48.143Z,21.24
2017-11-16T02:54:19.874Z,21.25
2017-11-16T02:54:51.516Z,21.23
2017-11-16T02:55:23.158Z,21.25
2017-11-16T02:55:54.800Z,21.25
2017-11-16T02:56:26.749Z,21.25
2017-11-16T02:56:58.390Z,21.25
2017-11-16T02:57:30.056Z,21.26
2017-11-16T02:58:01.679Z,21.26
2017-11-16T02:58:33.322Z,21.22
2017-11-16T02:59:05.000Z,21.20
2017-11-16T02:59:36.624Z,21.25
2017-11-16T03:00:08.247Z,21.20
2017-11-16T03:00:39.881Z,21.21
2017-11-16T03:01:11.527Z,21.19
2017-11-16T03:01:43.167Z,21.20
2017-11-16T03:02:14.814Z,21.21
2017-11-16T03:02:46.689Z,21.20
2017-11-16T03:03:18.317Z,21.19
2017-11-16T03:03:49.943Z,21.19
2017-11-16T03:04:21.611Z,21.22
2017-11-16T03:04:53.245Z,21.22
2017-11-16T03:05:24.879Z,21.24
2017-11-16T03:05:56.611Z,21.22
2017-11-16T03:06:28.252Z,21.21
2017-11-16T03:06:59.894Z,21.22
2017-11-16T03:07:31.537Z,21.24
2017-11-16T03:08:03.181Z,21.20
2017-11-16T03:08:34.849Z,21.20
2017-11-16T03:09:06.481Z,21.23
2017-11-16T03:09:38.226Z,21.23
2017-11-16T03:10:09.856Z,21.19
2017-11-16T03:10:41.691Z,21.22
2017-11-16T03:11:13.337Z,21.21
2017-11-16T03:11:44.979Z,21.21
2017-11-16T03:12:16.620Z,21.21
2017-11-16T03:12:48.247Z,21.22
2017-11-16T03:13:19.904Z,21.20
2017-11-16T03:13:51.572Z,21.20
2017-11-16T03:14:23.196Z,21.20
2017-11-16T03:14:54.830Z,21.20
2017-11-16T03:15:26.455Z,21.21
2017-11-16T03:15:58.119Z,21.22
2017-11-16T03:16:29.755Z,21.19
2017-11-16T03:17:01.396Z,21.18
2017-11-16T03:17:33.039Z,21.17
2017-11-16T03:18:04.679Z,21.17
2017-11-16T03:18:36.323Z,21.16
2017-11-16T03:19:07.965Z,21.17
2017-11-16T03:19:39.608Z,21.17
2017-11-16T03:20:11.240Z,21.19
2017-11-16T03:20:42.891Z,21.18
2017-11-16T03:21:14.560Z,21.19
2017-11-16T03:21:46.182Z,21.18
2017-11-16T03:22:17.817Z,21.19
2017-11-16T03:22:50.682Z,21.19
2017-11-16T03:23:22.329Z,21.17
2017-11-16T03:23:53.974Z,21.20
2017-11-16T03:24:25.609Z,21.21
2017-11-16T03:24:57.263Z,21.21
2017-11-16T03:25:28.900Z,21.20
2017-11-16T03:26:00.538Z,21.28
2017-11-16T03:26:32.203Z,21.24
2017-11-16T03:27:03.835Z,21.24
2017-11-16T03:27:35.772Z,21.24
2017-11-16T03:28:07.414Z,21.24
2017-11-16T03:28:39.057Z,21.24
2017-11-16T03:29:10.701Z,21.23
2017-11-16T03:29:42.380Z,21.21
2017-11-16T03:30:14.004Z,21.19
2017-11-16T03:30:45.629Z,21.18
2017-11-16T03:31:17.268Z,21.18
2017-11-16T03:31:49.077Z,21.18
2017-11-16T03:32:20.744Z,21.19
2017-11-16T03:32:52.497Z,21.22
2017-11-16T03:33:24.139Z,21.23
2017-11-16T03:33:55.779Z,21.22
2017-11-16T03:34:27.447Z,21.24
2017-11-16T03:34:59.071Z,21.23
2017-11-16T03:35:30.707Z,21.20
2017-11-16T03:36:02.331Z,21.24
2017-11-16T03:36:33.992Z,21.23
2017-11-16T03:37:05.634Z,21.23
2017-11-16T03:37:37.511Z,21.20
2017-11-16T03:38:09.135Z,21.18
2017-11-16T03:38:40.872Z,21.15
2017-11-16T03:39:12.509Z,21.18
2017-11-16T03:39:44.148Z,21.20
2017-11-16T03:40:15.791Z,21.21
2017-11-16T03:40:47.434Z,21.24
2017-11-16T03:41:19.077Z,21.23
2017-11-16T03:41:50.714Z,21.26
2017-11-16T03:42:22.359Z,21.24
2017-11-16T03:42:54.023Z,21.20
2017-11-16T03:43:25.659Z,21.21
2017-11-16T03:43:57.593Z,21.19
2017-11-16T03:44:29.223Z,21.22
2017-11-16T03:45:00.882Z,21.21
2017-11-16T03:45:32.523Z,21.22
2017-11-16T03:46:04.160Z,21.24
2017-11-16T03:46:35.811Z,21.24
2017-11-16T03:47:07.750Z,21.26
2017-11-16T03:47:39.395Z,21.25
2017-11-16T03:48:11.077Z,21.26
2017-11-16T03:48:42.704Z,21.25
2017-11-16T03:49:14.327Z,21.22
2017-11-16T03:49:45.964Z,21.25
2017-11-16T03:50:17.601Z,21.24
2017-11-16T03:50:49.243Z,21.24
2017-11-16T03:51:20.887Z,21.25
2017-11-16T03:51:53.399Z,21.25
2017-11-16T03:52:25.113Z,21.25
2017-11-16T03:52:56.747Z,21.25
2017-11-16T03:53:28.416Z,21.25
2017-11-16T03:54:00.043Z,21.27
2017-11-16T03:54:31.670Z,21.26
2017-11-16T03:55:03.608Z,21.28
2017-11-16T03:55:35.250Z,21.25
2017-11-16T03:56:06.892Z,21.27
2017-11-16T03:56:38.533Z,21.28
2017-11-16T03:57:10.180Z,21.26
2017-11-16T03:57:41.817Z,21.26
2017-11-16T03:58:13.460Z,21.26
2017-11-16T03:58:45.099Z,21.25
2017-11-16T03:59:16.752Z,21.24
2017-11-16T03:59:48.693Z,21.25
2017-11-16T04:00:20.332Z,21.25
2017-11-16T04:00:51.973Z,21.22
2017-11-16T04:01:23.617Z,21.25
2017-11-16T04:01:55.260Z,21.28
2017-11-16T04:02:26.902Z,21.27
2017-11-16T04:02:58.540Z,21.26
2017-11-16T04:03:30.187Z,21.25
2017-11-16T04:04:01.830Z,21.22
2017-11-16T04:04:33.777Z,21.23
2017-11-16T04:05:05.459Z,21.20
2017-11-16T04:05:37.083Z,21.19
2017-11-16T04:06:08.708Z,21.18
2017-11-16T04:06:40.335Z,21.17
2017-11-16T04:07:11.988Z,21.17
2017-11-16T04:07:43.628Z,21.17
2017-11-16T04:08:15.270Z,21.18
2017-11-16T04:08:46.912Z,21.16
2017-11-16T04:09:18.551Z,21.15
2017-11-16T04:09:50.196Z,21.15
2017-11-16T04:10:21.864Z,21.15
2017-11-16T04:10:53.491Z,21.16
2017-11-16T04:11:25.362Z,21.13
2017-11-16T04:11:56.996Z,21.13
2017-11-16T04:12:28.620Z,21.12
2017-11-16T04:13:00.355Z,21.11
2017-11-16T04:13:31.996Z,21.12
2017-11-16T04:14:03.641Z,21.13
2017-11-16T04:14:35.286Z,21.13
2017-11-16T04:15:06.923Z,21.13
2017-11-16T04:15:38.616Z,21.11
2017-11-16T04:16:10.516Z,21.10
2017-11-16T04:16:42.155Z,21.10
2017-11-16T04:17:13.796Z,21.11
2017-11-16T04:17:45.439Z,21.08
2017-11-16T04:18:17.084Z,21.10
2017-11-16T04:18:48.721Z,21.10
2017-11-16T04:19:20.372Z,21.13
2017-11-16T04:19:52.007Z,21.13
2017-11-16T04:20:23.650Z,21.15
2017-11-16T04:20:55.331Z,21.16
2017-11-16T04:21:26.968Z,21.19
2017-11-16T04:21:58.609Z,21.19
2017-11-16T04:22:30.239Z,21.18
2017-11-16T04:23:01.864Z,21.18
2017-11-16T04:23:33.500Z,21.18
2017-11-16T04:24:05.141Z,21.19
2017-11-16T04:24:36.783Z,21.20
2017-11-16T04:25:08.424Z,21.17
2017-11-16T04:25:40.067Z,21.18
2017-11-16T04:26:11.743Z,21.17
2017-11-16T04:26:43.367Z,21.14
2017-11-16T04:27:15.265Z,21.15
2017-11-16T04:27:46.895Z,21.13
2017-11-16T04:28:18.523Z,21.12
2017-11-16T04:28:50.147Z,21.11
2017-11-16T04:29:21.771Z,21.09
2017-11-16T04:29:53.509Z,21.07
2017-11-16T04:30:25.458Z,21.07
2017-11-16T04:30:57.098Z,21.07
2017-11-16T04:31:28.932Z,21.06
2017-11-16T04:32:00.691Z,21.04
2017-11-16T04:32:32.330Z,21.03
2017-11-16T04:33:03.974Z,21.02
2017-11-16T04:33:35.618Z,20.99
2017-11-16T04:34:07.273Z,21.00
2017-11-16T04:34:39.208Z,20.98
2017-11-16T04:35:10.852Z,20.97
2017-11-16T04:35:42.492Z,20.97
2017-11-16T04:36:14.115Z,20.98
2017-11-16T04:36:45.779Z,20.97
2017-11-16T04:37:17.459Z,20.96
2017-11-16T04:37:49.089Z,20.94
2017-11-16T04:38:20.725Z,20.96
2017-11-16T04:38:52.355Z,20.96
2017-11-16T04:39:24.299Z,20.98
2017-11-16T04:39:55.932Z,20.98
2017-11-16T04:40:27.576Z,20.98
2017-11-16T04:40:59.219Z,21.02
2017-11-16T04:41:30.860Z,21.00
2017-11-16T04:42:02.502Z,21.04
2017-11-16T04:42:34.167Z,21.03
2017-11-16T04:43:05.791Z,21.03
2017-11-16T04:43:37.428Z,21.03
2017-11-16T04:44:09.052Z,21.03
2017-11-16T04:44:40.680Z,21.04
2017-11-16T04:45:12.308Z,21.02
2017-11-16T04:45:43.992Z,21.02
2017-11-16T04:46:15.637Z,21.04
2017-11-16T04:46:47.279Z,21.05
2017-11-16T04:47:18.921Z,21.05
2017-11-16T04:47:50.562Z,21.03
2017-11-16T04:48:22.188Z,21.05
2017-11-16T04:48:53.847Z,21.07
2017-11-16T04:49:25.491Z,21.08
2017-11-16T04:49:57.131Z,21.08
2017-11-16T04:50:28.773Z,21.06
2017-11-16T04:51:00.446Z,21.06
2017-11-16T04:51:32.079Z,21.08
2017-11-16T04:52:03.703Z,21.08
2017-11-16T04:52:35.368Z,21.08
2017-11-16T04:53:06.996Z,21.10
2017-11-16T04:53:38.932Z,21.09
2017-11-16T04:54:10.573Z,21.08
2017-11-16T04:54:42.214Z,21.10
2017-11-16T04:55:13.854Z,21.13
2017-11-16T04:55:45.499Z,21.12
2017-11-16T04:56:17.354Z,21.12
2017-11-16T04:56:49.091Z,21.13
2017-11-16T04:57:20.775Z,21.13
2017-11-16T04:57:52.400Z,21.11
2017-11-16T04:58:24.631Z,21.13
2017-11-16T04:58:56.277Z,21.11
2017-11-16T04:59:27.918Z,21.12
2017-11-16T04:59:59.560Z,21.12
2017-11-16T05:00:31.196Z,21.14
2017-11-16T05:01:02.838Z,21.15
2017-11-16T05:01:34.482Z,21.16
2017-11-16T05:02:06.151Z,21.16
2017-11-16T05:02:37.783Z,21.18
2017-11-16T05:03:09.463Z,21.18
2017-11-16T05:03:41.089Z,21.20
2017-11-16T05:04:12.713Z,21.21
2017-11-16T05:04:44.340Z,21.22
2017-11-16T05:05:15.975Z,21.24
2017-11-16T05:05:47.617Z,21.22
2017-11-16T05:06:19.257Z,21.19
2017-11-16T05:06:50.903Z,21.20
2017-11-16T05:07:22.546Z,21.20
2017-11-16T05:07:54.188Z,21.27
2017-11-16T05:08:25.868Z,21.27
2017-11-16T05:08:57.492Z,21.28
2017-11-16T05:09:29.115Z,21.27
2017-11-16T05:10:00.751Z,21.28
2017-11-16T05:10:32.394Z,21.29
2017-11-16T05:11:04.035Z,21.29
2017-11-16T05:11:35.675Z,21.30
2017-11-16T05:12:07.343Z,21.32
2017-11-16T05:12:38.972Z,21.30
2017-11-16T05:13:10.910Z,21.30
2017-11-16T05:13:42.552Z,21.29
2017-11-16T05:14:14.222Z,21.31
2017-11-16T05:14:45.847Z,21.31
2017-11-16T05:15:17.527Z,21.32
2017-11-16T05:15:49.155Z,21.32
2017-11-16T05:16:20.779Z,21.31
2017-11-16T05:16:52.736Z,21.31
2017-11-16T05:17:24.372Z,21.28
2017-11-16T05:17:55.999Z,21.28
2017-11-16T05:18:27.634Z,21.29
2017-11-16T05:18:59.511Z,21.29
2017-11-16T05:19:31.153Z,21.29
2017-11-16T05:20:02.780Z,21.28
2017-11-16T05:20:34.453Z,21.31
2017-11-16T05:21:06.074Z,21.31
2017-11-16T05:21:37.694Z,21.32
2017-11-16T05:22:09.624Z,21.33
2017-11-16T05:22:41.386Z,21.32
2017-11-16T05:23:13.026Z,21.30
2017-11-16T05:23:44.669Z,21.29
2017-11-16T05:24:16.311Z,21.30
2017-11-16T05:24:47.975Z,21.36
2017-11-16T05:25:19.600Z,21.38
2017-11-16T05:25:51.237Z,21.38
2017-11-16T05:26:22.878Z,21.37
2017-11-16T05:26:54.522Z,21.38
2017-11-16T05:27:26.163Z,21.37
2017-11-16T05:27:57.804Z,21.37
2017-11-16T05:28:29.453Z,21.39
2017-11-16T05:29:01.396Z,21.36
2017-11-16T05:29:33.038Z,21.36
2017-11-16T05:30:04.703Z,21.34
2017-11-16T05:30:36.329Z,21.32
2017-11-16T05:31:07.965Z,21.30
2017-11-16T05:31:39.605Z,21.32
2017-11-16T05:32:11.247Z,21.32
2017-11-16T05:32:42.889Z,21.32
2017-11-16T05:33:14.515Z,21.34
2017-11-16T05:33:46.193Z,21.33
2017-11-16T05:34:17.831Z,21.33
2017-11-16T05:34:49.691Z,21.32
2017-11-16T05:35:21.410Z,21.32
2017-11-16T05:35:53.048Z,21.31
2017-11-16T05:36:24.689Z,21.35
2017-11-16T05:36:56.332Z,21.30
2017-11-16T05:37:28.281Z,21.28
2017-11-16T05:37:59.923Z,21.28
2017-11-16T05:38:31.564Z,21.25
2017-11-16T05:39:03.207Z,21.22
2017-11-16T05:39:34.848Z,21.23
2017-11-16T05:40:06.508Z,21.22
2017-11-16T05:40:38.181Z,21.21
2017-11-16T05:41:09.817Z,21.21
2017-11-16T05:41:41.443Z,21.21
2017-11-16T05:42:13.072Z,21.20
2017-11-16T05:42:44.942Z,21.22
2017-11-16T05:43:16.564Z,21.20
2017-11-16T05:43:48.192Z,21.24
2017-11-16T05:44:19.863Z,21.20
2017-11-16T05:44:51.490Z,21.20
2017-11-16T05:45:23.220Z,21.20
2017-11-16T05:45:54.864Z,21.19
2017-11-16T05:46:26.503Z,21.18
2017-11-16T05:46:58.157Z,21.18
2017-11-16T05:47:29.795Z,21.17
2017-11-16T05:48:01.734Z,21.16
2017-11-16T05:48:33.374Z,21.17
2017-11-16T05:49:05.008Z,21.14
2017-11-16T05:49:36.676Z,21.14
2017-11-16T05:50:08.307Z,21.12
2017-11-16T05:50:40.250Z,21.11
2017-11-16T05:51:11.883Z,21.10
2017-11-16T05:51:43.534Z,21.10
2017-11-16T05:52:15.176Z,21.10
2017-11-16T05:52:46.819Z,21.11
2017-11-16T05:53:18.458Z,21.10
2017-11-16T05:53:50.098Z,21.09
2017-11-16T05:54:21.744Z,21.08
2017-11-16T05:54:53.423Z,21.08
2017-11-16T05:55:25.064Z,21.06
2017-11-16T05:55:56.687Z,21.02
2017-11-16T05:56:28.552Z,21.04
2017-11-16T05:57:00.183Z,21.08
2017-11-16T05:57:31.808Z,21.06
2017-11-16T05:58:03.544Z,21.08
2017-11-16T05:58:35.183Z,21.07
2017-11-16T05:59:06.828Z,21.08
2017-11-16T05:59:38.470Z,21.09
2017-11-16T06:00:10.136Z,21.09
2017-11-16T06:00:41.761Z,21.08
2017-11-16T06:01:13.435Z,21.09
2017-11-16T06:01:45.065Z,21.08
2017-11-16T06:02:16.687Z,21.06
2017-11-16T06:02:48.325Z,21.06
2017-11-16T06:03:19.963Z,21.08
2017-11-16T06:03:51.595Z,21.08
2017-11-16T06:04:23.244Z,21.06
2017-11-16T06:04:54.889Z,21.05
2017-11-16T06:05:26.533Z,21.08
2017-11-16T06:05:58.172Z,21.08
2017-11-16T06:06:29.815Z,21.09
2017-11-16T06:07:01.457Z,21.07
2017-11-16T06:07:33.097Z,21.08
2017-11-16T06:08:04.749Z,21.09
2017-11-16T06:08:36.392Z,21.11
2017-11-16T06:09:08.331Z,21.09
2017-11-16T06:09:39.973Z,21.06
2017-11-16T06:10:11.923Z,21.06
2017-11-16T06:10:43.775Z,21.05
2017-11-16T06:11:15.514Z,21.07
2017-11-16T06:11:47.156Z,21.08
2017-11-16T06:12:18.797Z,21.08
2017-11-16T06:12:50.438Z,21.10
2017-11-16T06:13:22.129Z,21.11
2017-11-16T06:13:54.027Z,21.12
2017-11-16T06:14:25.911Z,21.12
2017-11-16T06:14:57.534Z,21.17
2017-11-16T06:15:29.171Z,21.19
2017-11-16T06:16:00.905Z,21.21
2017-11-16T06:16:32.547Z,21.22
2017-11-16T06:17:04.495Z,21.20
2017-11-16T06:17:36.156Z,21.22
2017-11-16T06:18:08.013Z,21.22
2017-11-16T06:18:39.639Z,21.22
2017-11-16T06:19:11.278Z,21.21
2017-11-16T06:19:43.012Z,21.22
2017-11-16T06:20:14.661Z,21.22
2017-11-16T06:20:46.313Z,21.21
2017-11-16T06:21:17.947Z,21.20
2017-11-16T06:21:49.887Z,21.18
2017-11-16T06:22:21.552Z,21.19
2017-11-16T06:22:53.218Z,21.21
2017-11-16T06:23:24.844Z,21.20
2017-11-16T06:23:56.467Z,21.18
2017-11-16T06:24:28.097Z,21.19
2017-11-16T06:24:59.738Z,21.20
2017-11-16T06:25:31.382Z,21.22
2017-11-16T06:26:03.023Z,21.21
2017-11-16T06:26:34.664Z,21.25
2017-11-16T06:27:06.306Z,21.28
2017-11-16T06:27:37.996Z,21.27
2017-11-16T06:28:09.634Z,21.27
2017-11-16T06:28:41.264Z,21.28
2017-11-16T06:29:13.188Z,21.30
2017-11-16T06:29:44.823Z,21.29
2017-11-16T06:30:16.464Z,21.27
2017-11-16T06:30:48.107Z,21.25
2017-11-16T06:31:19.749Z,21.25
2017-11-16T06:31:51.391Z,21.19
2017-11-16T06:32:23.033Z,21.25
2017-11-16T06:32:54.703Z,21.25
2017-11-16T06:33:26.330Z,21.26
2017-11-16T06:33:58.191Z,21.25
2017-11-16T06:34:29.907Z,21.24
2017-11-16T06:35:01.548Z,21.23
2017-11-16T06:35:33.188Z,21.26
2017-11-16T06:36:04.833Z,21.28
2017-11-16T06:36:36.474Z,21.29
2017-11-16T06:37:08.425Z,21.28
2017-11-16T06:37:40.095Z,21.27
2017-11-16T06:38:11.727Z,21.27
2017-11-16T06:38:43.355Z,21.31
2017-11-16T06:39:14.992Z,21.29
2017-11-16T06:39:46.671Z,21.28
2017-11-16T06:40:18.302Z,21.29
2017-11-16T06:40:49.929Z,21.29
2017-11-16T06:41:21.564Z,21.30
2017-11-16T06:41:53.208Z,21.30
2017-11-16T06:42:25.043Z,21.30
2017-11-16T06:42:56.797Z,21.30
2017-11-16T06:43:28.483Z,21.34
2017-11-16T06:44:00.116Z,21.32
2017-11-16T06:44:31.738Z,21.33
2017-11-16T06:45:03.363Z,21.32
2017-11-16T06:45:34.999Z,21.34
2017-11-16T06:46:06.646Z,21.33
2017-11-16T06:46:38.288Z,21.32
2017-11-16T06:47:09.924Z,21.33
2017-11-16T06:47:41.569Z,21.31